• Join FlightAware (Why Join?)
  • Login
  • US Flag 
12:55PM EDT


 

Airport Tracker/Info


-or-


 

Live Flight TrackerFlight Track Log ✈ N818GM ✈ 23-Aug-2013 ✈ KTLH - KFMY

Flight Track Log - Related Links

Times and Time Zones

All times are in EDT time to prevent confusion due to time zone crossing. See the N818GM flight status page for this flight to view local times or setup timezone preferences in your user account.

Time Position Orientation Groundspeed Altitude Reporting Facility
EDT Latitude Longitude Course Direction KTS MPH feet Rate Location/Type
07:09AM 30.4830 -84.2863 134° Southeast  Level FlightAware Approximate
07:10AM 30.4507 -84.2499 138° Southeast  Level FlightAware Approximate
07:11AM 30.4173 -84.2148 138° Southeast  Level FlightAware Approximate
07:12AM 30.3838 -84.1797 138° Southeast  Level FlightAware Approximate
07:13AM 30.3504 -84.1447 138° Southeast  Level FlightAware Approximate
07:14AM 30.3170 -84.1097 138° Southeast  Level FlightAware Approximate
07:14AM 30.1203 -83.9347 138° Southeast 164 189 7,000  Level Jacksonville Center
07:15AM 30.2835 -84.0747 138° Southeast  Level FlightAware Approximate
07:15AM 30.0978 -83.8936 122° Southeast 164 189 7,000  Level Jacksonville Center
07:16AM 30.2501 -84.0397 138° Southeast  Level FlightAware Approximate
07:16AM 30.0731 -83.8503 123° Southeast 171 197 7,000  Level Jacksonville Center
07:17AM 30.2166 -84.0048 138° Southeast  Level FlightAware Approximate
07:17AM 30.0461 -83.8044 124° Southeast 171 197 7,000  Level Jacksonville Center
07:18AM 30.1831 -83.9699 138° Southeast  Level FlightAware Approximate
07:18AM 30.0214 -83.7611 123° Southeast 171 197 7,000  Level Jacksonville Center
07:19AM 30.1496 -83.9350 138° Southeast  Level FlightAware Approximate
07:19AM 29.9925 -83.7225 131° Southeast 171 197 7,000  Level Jacksonville Center
07:20AM 29.9592 -83.6886 139° Southeast 161 185 7,000  Level Jacksonville Center
07:21AM 29.9239 -83.6572 142° Southeast 161 185 7,000  Level Jacksonville Center
07:22AM 29.8928 -83.6233 137° Southeast 161 185 7,000  Level Jacksonville Center
07:23AM 29.8575 -83.5919 142° Southeast 161 185 7,000  Level Jacksonville Center
07:24AM 29.8222 -83.5581 140° Southeast 161 185 7,000  Level Jacksonville Center
07:25AM 29.7889 -83.5219 137° Southeast 161 185 7,000  Level Jacksonville Center
07:26AM 29.7536 -83.4883 140° Southeast 161 185 7,000  Level Jacksonville Center
07:27AM 29.7203 -83.4547 139° Southeast 161 185 7,000  Level Jacksonville Center
07:28AM 29.6850 -83.4186 138° Southeast 161 185 7,000  Level Jacksonville Center
07:29AM 29.6497 -83.3850 140° Southeast 161 185 7,000  Level Jacksonville Center
07:30AM 29.6164 -83.3514 139° Southeast 161 185 7,000  Level Jacksonville Center
07:30AM 29.5956 -83.3319 141° Southeast 165 190 7,000  Level Jacksonville Center
07:31AM 29.5664 -83.3033 140° Southeast 167 192 7,000  Level Jacksonville Center
07:32AM 29.5456 -83.2842 141° Southeast 161 185 7,000  Level Jacksonville Center
07:33AM 29.5122 -83.2481 137° Southeast 161 185 7,000  Level Jacksonville Center
07:34AM 29.4769 -83.2122 139° Southeast 166 191 7,000  Level Jacksonville Center
07:35AM 29.4417 -83.1789 141° Southeast 166 191 7,000  Level Jacksonville Center
07:36AM 29.4103 -83.1453 137° Southeast 166 191 7,000  Level Jacksonville Center
07:37AM 29.3750 -83.1094 138° Southeast 166 191 7,000  Level Jacksonville Center
07:38AM 29.3372 -83.0761 142° Southeast 166 191 7,000  Level Jacksonville Center
07:38AM 29.3144 -83.0544 140° Southeast 169 194 7,000  Level Jacksonville Center
07:39AM 29.2789 -83.0189 139° Southeast 169 194 7,000  Level Jacksonville Center
07:40AM 29.2456 -82.9831 137° Southeast 169 194 7,000  Level Jacksonville Center
07:41AM 29.2186 -82.9592 142° Southeast 166 191 7,000  Level Jacksonville Center
07:42AM 29.1975 -82.9378 139° Southeast 161 185 7,000  Level Jacksonville Center
07:43AM 29.1622 -82.9022 139° Southeast 161 185 7,000  Level Jacksonville Center
07:44AM 29.1267 -82.8664 139° Southeast 161 185 7,000  Level Jacksonville Center
07:45AM 29.0911 -82.8331 141° Southeast 161 185 7,000  Level Jacksonville Center
07:46AM 29.0328 -82.7761 140° Southeast 171 197 7,000  Level Jacksonville Center
07:47AM 28.9992 -82.7431 139° Southeast 167 192 7,000  Level Jacksonville Center
07:48AM 28.9636 -82.7097 141° Southeast 169 194 7,000  Level Jacksonville Center
07:49AM 28.9344 -82.6814 140° Southeast 167 192 7,000  Level Jacksonville Center
07:50AM 28.8969 -82.6483 142° Southeast 168 193 7,000  Level Jacksonville Center
07:51AM 28.8614 -82.6106 137° Southeast 168 193 7,000  Level Jacksonville Center
07:52AM 28.8258 -82.5775 141° Southeast 164 189 7,000  Level Jacksonville Center
07:54AM 28.7500 -82.5000 138° Southeast 169 194 7,000  Level Tampa TRACON
07:55AM 28.7000 -82.4667 150° Southeast 169 194 7,000  Level Tampa TRACON
07:56AM 28.6667 -82.4500 156° South 169 194 7,000  Level Tampa TRACON
07:57AM 28.6333 -82.4167 139° Southeast 169 194 7,000  Level Tampa TRACON
07:58AM 28.5833 -82.4000 164° South 169 194 7,000  Level Tampa TRACON
07:59AM 28.5500 -82.3667 139° Southeast 169 194 7,000  Level Tampa TRACON
08:00AM 28.5000 -82.3500 164° South 170 196 7,000  Level Tampa TRACON
08:01AM 28.4667 -82.3167 139° Southeast 171 197 7,000  Level Tampa TRACON
08:02AM 28.4167 -82.2833 150° Southeast 170 196 7,000  Level Tampa TRACON
08:03AM 28.3833 -82.2667 156° South 173 199 7,000  Level Tampa TRACON
08:04AM 28.3333 -82.2333 150° Southeast 170 196 7,000  Level Tampa TRACON
08:05AM 28.3000 -82.2167 156° South 171 197 7,000  Level Tampa TRACON
08:06AM 28.2500 -82.1833 150° Southeast 171 197 7,000  Level Tampa TRACON
08:07AM 28.2167 -82.1500 139° Southeast 170 196 7,000  Level Tampa TRACON
08:08AM 28.1833 -82.1333 156° South 169 194 7,000  Level Tampa TRACON
08:09AM 28.1333 -82.1000 150° Southeast 171 197 7,000  Level Tampa TRACON
08:10AM 28.0833 -82.0833 164° South 170 196 7,000  Level Tampa TRACON
08:11AM 28.0500 -82.0500 139° Southeast 169 194 7,000  Level Tampa TRACON
08:13AM 27.9847 -82.0150 155° Southeast 154 177 7,000  Level Miami Center
08:14AM 27.9397 -81.9919 156° South 154 177 7,000  Level Miami Center
08:15AM 27.8989 -81.9689 153° Southeast 159 183 7,000  Level Miami Center
08:16AM 27.8558 -81.9433 152° Southeast 165 190 7,000  Level Miami Center
08:17AM 27.8131 -81.9203 155° Southeast 170 196 7,000  Level Miami Center
08:18AM 27.7672 -81.9136 173° South 165 190 7,000  Level Miami Center
08:19AM 27.7233 -81.9186 186° South 159 183 7,000  Level Miami Center
08:20AM 27.6750 -81.9236 185° South 165 190 7,000  Level Miami Center
08:21AM 27.6228 -81.9283 185° South 165 190 7,000  Level Miami Center
08:22AM 27.5767 -81.9333 185° South 175 201 7,000  Level Miami Center
08:23AM 27.5306 -81.9383 185° South 175 201 7,000  Level Miami Center
08:24AM 27.4844 -81.9433 185° South 175 201 7,000  Level Miami Center
08:25AM 27.4364 -81.9458 183° South 180 207 7,000  Level Miami Center
08:26AM 27.3883 -81.9508 185° South 180 207 7,000  Level Miami Center
08:27AM 27.3422 -81.9533 183° South 180 207 7,000  Level Miami Center
08:28AM 27.2942 -81.9583 185° South 180 207 7,000  Level Miami Center
08:29AM 27.2458 -81.9608 183° South 180 207 7,000  Level Miami Center
08:30AM 27.1978 -81.9681 188° South 180 207 7,000  Level Miami Center
08:31AM 27.1497 -81.9706 183° South 180 207 7,000  Level Miami Center
08:32AM 27.1036 -81.9733 183° South 180 207 7,000  Level Miami Center
08:33AM 27.0556 -81.9781 185° South 180 207 7,000  Level Miami Center
08:34AM 27.0094 -81.9831 186° South 180 207 7,000 -360 Level Miami Center
08:35AM 26.9592 -81.9878 185° South 180 207 6,300  Descending Miami Center
08:36AM 26.9028 -81.9831 176° South 185 213 7,000 660 Climbing Miami Center
08:38AM 26.8278 -81.9517 161° South  Level FlightAware Approximate
08:45AM 26.5833 -81.8500 156° South  Level FlightAware Approximate
08:46AM 26.5866 -81.8633 156° South  Level Estimated
08:47AM 26.5866 -81.8633 156° South  Level Estimated
08:48AM 26.5866 -81.8633 156° South  Level Estimated
08:49AM 26.5866 -81.8633 156° South  Level Estimated
08:50AM 26.5866 -81.8633 156° South  Level Estimated
08:51AM 26.5866 -81.8633 156° South  Level Estimated
08:52AM 26.5866 -81.8633 156° South  Level Estimated
08:53AM 26.5866 -81.8633 156° South  Level Estimated
08:54AM 26.5866 -81.8633 156° South  Level Estimated
08:55AM 26.5866 -81.8633 156° South  Level Estimated
08:56AM 26.5866 -81.8633 156° South  Level Estimated
08:57AM 26.5866 -81.8633 156° South  Level Estimated
08:58AM 26.5866 -81.8633 156° South  Level Estimated
08:59AM 26.5866 -81.8633 156° South  Level Estimated
09:00AM 26.5866 -81.8633 156° South  Level Estimated
09:01AM 26.5866 -81.8633 156° South  Level Estimated
09:02AM 26.5866 -81.8633 156° South  Level Estimated